Hlavní strana
METAR-TAF:

METAR-TAF

Letiště :

Bahrajn, Bahrajn

zeměpisná šířka: 26-16N, zeměpisná délka: 050-39E, výška: 2 m

Aktuální stav počasí

Zpráva byla vytvořena před 9 minutami, v 19:00 UTC
Severozápadní vítr 7 kt
Teplota 33°C
Vlhkost vzduchu 63%
Tlak 999 hPa
Viditelnost 10 km a více
Žádná oblačnost pod 1500 m, nevyskytují se cumulonimby.

METAR: OBBI 151900Z 31007KT CAVOK 33/25 Q0999 NOSIG

Čas: 22:09 (19:09 UTC)

Předpověď počasí

Zpráva byla vytvořena před 2 hodinami a 9 minutami, v 17:00 UTC
Předpověď platná od 15 v 18 UTC do 17 v 00 UTC
Severoseverozápadní vítr 10 kt
Viditelnost 10 km a více
Žádná oblačnost pod 1500 m, nevyskytují se cumulonimby.

TAF: OBBI 151700Z 1518/1700 33010KT CAVOK

Stav a předpovědi počasí z více než 4 000 letišť (zprávy METAR a TAF).

Červené a žluté tečky na mapě představují dostupné meteorologické stanice.

Když kurzor umístíte na tečku, zobrazí se název stanice.

Pak kliknutím zobrazíte stav a předpověď počasí.

Chcete-li změnit mapu, kliknutím na zelené tlačítko se znaménkem +mapu přiblížíte, kliknutím na zelené tlačítko se znaménkem – mapu oddálíte a kliknutím na zelené šipky přejdete na sousední mapy.


METAR-TAF: